createdAt,value
2018-09-14T00:00:35.768Z,99.90
2018-09-14T00:03:04.946Z,99.90
2018-09-14T00:05:33.000Z,99.90
2018-09-14T00:08:01.297Z,99.90
2018-09-14T00:10:29.365Z,99.90
2018-09-14T00:12:57.429Z,99.90
2018-09-14T00:15:25.498Z,99.90
2018-09-14T00:17:53.541Z,99.90
2018-09-14T00:20:21.645Z,99.90
2018-09-14T00:22:49.678Z,99.90
2018-09-14T00:27:52.420Z,99.90
2018-09-14T00:30:20.466Z,99.90
2018-09-14T00:32:48.492Z,99.90
2018-09-14T00:35:16.665Z,99.90
2018-09-14T00:37:44.701Z,99.90
2018-09-14T00:40:12.753Z,99.90
2018-09-14T00:42:40.783Z,99.90
2018-09-14T00:45:08.917Z,99.90
2018-09-14T00:47:37.203Z,99.90
2018-09-14T00:50:05.505Z,99.90
2018-09-14T00:52:33.553Z,99.90
2018-09-14T00:55:01.725Z,99.90
2018-09-14T00:57:29.829Z,99.90
2018-09-14T00:59:57.857Z,99.90
2018-09-14T01:02:25.925Z,99.90
2018-09-14T01:04:53.975Z,99.90
2018-09-14T01:07:22.089Z,99.90
2018-09-14T01:09:50.249Z,99.90
2018-09-14T01:12:18.321Z,99.90
2018-09-14T01:14:46.408Z,99.90
2018-09-14T01:17:14.489Z,99.90
2018-09-14T01:19:42.518Z,99.90
2018-09-14T01:22:10.624Z,99.90
2018-09-14T01:24:38.662Z,99.90
2018-09-14T01:27:06.774Z,99.90
2018-09-14T01:29:34.809Z,99.90
2018-09-14T01:32:02.877Z,99.90
2018-09-14T01:34:30.914Z,99.90
2018-09-14T01:37:00.212Z,99.90
2018-09-14T01:39:28.305Z,99.90
2018-09-14T01:41:56.619Z,99.90
2018-09-14T01:44:24.616Z,99.90
2018-09-14T01:46:52.693Z,99.90
2018-09-14T01:49:20.768Z,99.90
2018-09-14T01:51:49.445Z,99.90
2018-09-14T01:54:17.613Z,99.90
2018-09-14T01:56:45.861Z,99.90
2018-09-14T01:59:13.901Z,99.90
2018-09-14T02:01:41.963Z,99.90
2018-09-14T02:04:10.013Z,99.90
2018-09-14T02:06:38.069Z,99.90
2018-09-14T02:09:06.783Z,99.90
2018-09-14T02:11:34.861Z,99.90
2018-09-14T02:14:03.065Z,99.90
2018-09-14T02:16:31.209Z,99.90
2018-09-14T02:18:59.282Z,99.90
2018-09-14T02:21:27.350Z,99.90
2018-09-14T02:23:55.436Z,99.90
2018-09-14T02:26:23.494Z,99.90
2018-09-14T02:28:52.553Z,99.90
2018-09-14T02:31:20.883Z,99.90
2018-09-14T02:33:48.937Z,99.90
2018-09-14T02:36:17.024Z,99.90
2018-09-14T02:38:45.089Z,99.90
2018-09-14T02:41:13.109Z,99.90
2018-09-14T02:43:41.341Z,99.90
2018-09-14T02:46:09.417Z,99.90
2018-09-14T02:48:37.473Z,99.90
2018-09-14T02:51:05.740Z,99.90
2018-09-14T02:53:33.776Z,99.90
2018-09-14T02:56:01.817Z,99.90
2018-09-14T02:58:29.983Z,99.90
2018-09-14T03:00:58.009Z,99.90
2018-09-14T03:03:26.235Z,99.90
2018-09-14T03:05:54.260Z,99.90
2018-09-14T03:08:22.329Z,99.90
2018-09-14T03:10:50.453Z,99.90
2018-09-14T03:13:18.496Z,99.90
2018-09-14T03:15:46.541Z,99.90
2018-09-14T03:18:14.661Z,99.90
2018-09-14T03:20:42.702Z,99.90
2018-09-14T03:23:10.742Z,99.90
2018-09-14T03:25:38.773Z,99.90
2018-09-14T03:28:06.854Z,99.90
2018-09-14T03:30:34.933Z,99.90
2018-09-14T03:33:03.002Z,99.90
2018-09-14T03:35:31.048Z,99.90
2018-09-14T03:37:59.076Z,99.90
2018-09-14T03:40:27.137Z,99.90
2018-09-14T03:42:55.152Z,99.90
2018-09-14T03:45:23.255Z,99.90
2018-09-14T03:47:51.294Z,99.90
2018-09-14T03:50:19.401Z,99.90
2018-09-14T03:52:47.453Z,99.90
2018-09-14T03:55:15.547Z,99.90
2018-09-14T03:57:43.626Z,99.90
2018-09-14T04:00:11.673Z,99.90
2018-09-14T04:02:39.740Z,99.90
2018-09-14T04:05:07.867Z,99.90
2018-09-14T04:07:35.916Z,99.90
2018-09-14T04:10:03.981Z,99.90
2018-09-14T04:12:32.041Z,99.90
2018-09-14T04:15:00.114Z,99.90
2018-09-14T04:17:28.145Z,99.90
2018-09-14T04:19:56.217Z,99.90
2018-09-14T04:22:24.258Z,99.90
2018-09-14T04:24:52.338Z,99.90
2018-09-14T04:27:20.922Z,99.90
2018-09-14T04:29:48.997Z,99.90
2018-09-14T04:32:17.976Z,99.90
2018-09-14T04:34:46.171Z,99.90
2018-09-14T04:37:15.205Z,99.90
2018-09-14T04:39:43.267Z,99.90
2018-09-14T04:42:11.319Z,99.90
2018-09-14T04:44:39.389Z,99.90
2018-09-14T04:47:07.465Z,99.90
2018-09-14T04:49:35.594Z,99.90
2018-09-14T04:52:03.627Z,99.90
2018-09-14T04:54:32.352Z,99.90
2018-09-14T04:57:00.435Z,99.90
2018-09-14T04:59:28.481Z,99.90
2018-09-14T05:01:56.569Z,99.90
2018-09-14T05:04:24.658Z,99.90
2018-09-14T05:06:52.836Z,99.90
2018-09-14T05:09:20.923Z,99.90
2018-09-14T05:11:48.949Z,99.90
2018-09-14T05:14:17.098Z,99.90
2018-09-14T05:16:45.021Z,99.90
2018-09-14T05:19:13.062Z,99.90
2018-09-14T05:21:41.152Z,99.90
2018-09-14T05:24:09.224Z,99.90
2018-09-14T05:26:37.270Z,99.90
2018-09-14T05:29:05.294Z,99.90
2018-09-14T05:31:33.392Z,99.90
2018-09-14T05:34:01.413Z,99.90
2018-09-14T05:36:29.469Z,99.90
2018-09-14T05:38:57.535Z,99.90
2018-09-14T05:41:25.633Z,99.90
2018-09-14T05:43:53.830Z,99.90
2018-09-14T05:46:21.845Z,99.90
2018-09-14T05:48:49.887Z,99.90
2018-09-14T05:51:17.931Z,99.90
2018-09-14T05:53:45.999Z,99.90
2018-09-14T05:56:14.046Z,99.90
2018-09-14T05:58:42.162Z,99.90
2018-09-14T06:01:10.228Z,99.90
2018-09-14T06:03:38.277Z,99.90
2018-09-14T06:06:06.369Z,99.90
2018-09-14T06:08:34.526Z,99.90
2018-09-14T06:11:02.598Z,99.90
2018-09-14T06:13:30.652Z,99.90
2018-09-14T06:15:58.737Z,99.90
2018-09-14T06:18:26.789Z,99.90
2018-09-14T06:20:54.890Z,99.90
2018-09-14T06:23:23.087Z,99.90
2018-09-14T06:25:51.162Z,99.90
2018-09-14T06:28:19.205Z,99.90
2018-09-14T06:30:47.514Z,99.90
2018-09-14T06:33:15.577Z,99.90
2018-09-14T06:35:43.651Z,99.90
2018-09-14T06:38:11.715Z,99.90
2018-09-14T06:40:39.792Z,99.90
2018-09-14T06:43:07.848Z,99.90
2018-09-14T06:45:35.905Z,99.90
2018-09-14T06:48:04.022Z,99.90
2018-09-14T06:50:32.162Z,99.90
2018-09-14T06:53:00.234Z,99.90
2018-09-14T06:55:28.283Z,99.90
2018-09-14T06:57:56.329Z,99.90
2018-09-14T07:00:24.639Z,99.90
2018-09-14T07:02:52.637Z,99.90
2018-09-14T07:05:20.700Z,99.90
2018-09-14T07:07:48.781Z,99.90
2018-09-14T07:10:16.850Z,99.90
2018-09-14T07:12:45.028Z,99.90
2018-09-14T07:15:13.147Z,99.90
2018-09-14T07:17:41.302Z,99.90
2018-09-14T07:20:09.561Z,99.90
2018-09-14T07:22:37.629Z,99.90
2018-09-14T07:25:05.690Z,99.90
2018-09-14T07:27:33.769Z,99.90
2018-09-14T07:30:01.846Z,99.90
2018-09-14T07:32:30.379Z,99.90
2018-09-14T07:34:58.401Z,99.90
2018-09-14T07:37:26.459Z,99.90
2018-09-14T07:39:54.539Z,99.90
2018-09-14T07:42:22.660Z,99.90
2018-09-14T07:44:50.865Z,99.90
2018-09-14T07:47:18.881Z,99.90
2018-09-14T07:49:46.920Z,99.90
2018-09-14T07:52:14.996Z,99.90
2018-09-14T07:54:43.117Z,99.90
2018-09-14T07:57:11.280Z,99.90
2018-09-14T07:59:39.309Z,99.90
2018-09-14T08:02:07.392Z,99.90
2018-09-14T08:04:35.435Z,99.90
2018-09-14T08:07:03.658Z,99.90
2018-09-14T08:09:31.881Z,99.90
2018-09-14T08:12:00.003Z,99.90
2018-09-14T08:14:28.085Z,99.90
2018-09-14T08:16:56.148Z,99.90
2018-09-14T08:19:24.209Z,99.90
2018-09-14T08:21:52.433Z,99.90
2018-09-14T08:24:20.361Z,99.90
2018-09-14T08:26:48.503Z,99.90
2018-09-14T08:29:16.551Z,99.90
2018-09-14T08:31:44.674Z,99.90
2018-09-14T08:34:12.737Z,99.90
2018-09-14T08:36:40.813Z,99.90
2018-09-14T08:39:09.629Z,99.90
2018-09-14T08:41:37.985Z,99.90
2018-09-14T08:44:06.110Z,99.90
2018-09-14T08:46:34.192Z,99.90
2018-09-14T08:49:02.338Z,99.90
2018-09-14T08:51:30.442Z,99.90
2018-09-14T08:53:58.554Z,99.90
2018-09-14T08:56:26.659Z,99.90
2018-09-14T08:58:54.698Z,99.90
2018-09-14T09:01:22.790Z,99.90
2018-09-14T09:03:50.892Z,99.90
2018-09-14T09:06:18.897Z,99.90
2018-09-14T09:08:47.089Z,99.90
2018-09-14T09:11:15.288Z,99.90
2018-09-14T09:13:43.344Z,99.90
2018-09-14T09:16:11.396Z,99.90
2018-09-14T09:18:39.481Z,99.90
2018-09-14T09:21:07.695Z,99.90
2018-09-14T09:23:35.701Z,99.90
2018-09-14T09:26:03.949Z,99.90
2018-09-14T09:28:32.004Z,99.90
2018-09-14T09:31:00.249Z,99.90
2018-09-14T09:33:28.294Z,99.90
2018-09-14T09:35:56.339Z,99.90
2018-09-14T09:38:24.426Z,99.90
2018-09-14T09:40:52.538Z,99.90
2018-09-14T09:43:20.745Z,99.90
2018-09-14T09:45:48.674Z,99.90
2018-09-14T09:48:17.022Z,99.90
2018-09-14T09:50:45.121Z,99.90
2018-09-14T09:53:13.193Z,99.90
2018-09-14T09:55:41.240Z,99.90
2018-09-14T09:58:09.357Z,99.90
2018-09-14T10:00:46.877Z,99.90
2018-09-14T10:03:20.387Z,99.90
2018-09-14T10:05:54.261Z,99.90
2018-09-14T10:08:22.343Z,99.90
2018-09-14T10:10:50.540Z,99.90
2018-09-14T10:13:18.573Z,99.90
2018-09-14T10:15:46.629Z,99.90
2018-09-14T10:18:14.790Z,99.90
2018-09-14T10:20:42.867Z,99.90
2018-09-14T10:23:10.969Z,99.90
2018-09-14T10:25:38.998Z,99.90
2018-09-14T10:28:07.065Z,99.90
2018-09-14T10:30:35.104Z,99.90
2018-09-14T10:33:03.149Z,99.90
2018-09-14T10:35:31.226Z,99.90
2018-09-14T10:37:59.277Z,99.90
2018-09-14T10:40:27.328Z,99.90
2018-09-14T10:42:55.450Z,99.90
2018-09-14T10:45:23.585Z,99.90
2018-09-14T10:47:51.596Z,99.90
2018-09-14T10:50:19.975Z,99.90
2018-09-14T10:52:48.040Z,99.90
2018-09-14T10:55:16.175Z,99.90
2018-09-14T10:57:44.184Z,99.90
2018-09-14T11:00:12.236Z,99.90
2018-09-14T11:02:40.365Z,99.90
2018-09-14T11:05:08.448Z,99.90
2018-09-14T11:07:36.578Z,99.90
2018-09-14T11:10:04.627Z,99.90
2018-09-14T11:12:32.863Z,99.90
2018-09-14T11:15:00.861Z,99.90
2018-09-14T11:17:28.974Z,99.90
2018-09-14T11:19:57.041Z,99.90
2018-09-14T11:22:25.093Z,99.90
2018-09-14T11:24:53.199Z,99.90
2018-09-14T11:27:21.186Z,99.90
2018-09-14T11:29:49.227Z,99.90
2018-09-14T11:32:17.351Z,99.90
2018-09-14T11:34:45.341Z,99.90
2018-09-14T11:37:13.450Z,99.90
2018-09-14T11:39:41.509Z,99.90
2018-09-14T11:42:09.541Z,99.90
2018-09-14T11:44:37.661Z,99.90
2018-09-14T11:47:05.693Z,99.90
2018-09-14T11:49:33.901Z,99.90
2018-09-14T11:52:01.974Z,99.90
2018-09-14T11:54:30.022Z,99.90
2018-09-14T11:56:58.087Z,99.90
2018-09-14T11:59:26.108Z,99.90
2018-09-14T12:01:54.517Z,99.90
2018-09-14T12:04:22.635Z,99.90
2018-09-14T12:06:50.617Z,99.90
2018-09-14T12:09:18.662Z,99.90
2018-09-14T12:11:46.762Z,99.90
2018-09-14T12:14:14.816Z,99.90
2018-09-14T12:16:42.871Z,99.90
2018-09-14T12:19:10.907Z,99.90
2018-09-14T12:21:38.953Z,99.90
2018-09-14T12:24:07.021Z,99.90
2018-09-14T12:26:35.050Z,99.90
2018-09-14T12:29:03.131Z,99.90
2018-09-14T12:31:31.183Z,99.90
2018-09-14T12:33:59.240Z,99.90
2018-09-14T12:36:27.271Z,99.90
2018-09-14T12:38:55.357Z,99.90
2018-09-14T12:41:23.461Z,99.90
2018-09-14T12:43:51.497Z,99.90
2018-09-14T12:46:19.569Z,99.90
2018-09-14T12:48:47.917Z,99.90
2018-09-14T12:51:15.913Z,99.90
2018-09-14T12:53:43.984Z,99.90
2018-09-14T12:56:12.088Z,99.90
2018-09-14T12:58:40.124Z,99.90
2018-09-14T13:01:08.205Z,99.90
2018-09-14T13:03:36.261Z,99.90
2018-09-14T13:06:04.360Z,99.90
2018-09-14T13:08:32.385Z,99.90
2018-09-14T13:11:00.695Z,99.90
2018-09-14T13:13:30.097Z,99.90
2018-09-14T13:15:58.181Z,99.90
2018-09-14T13:18:26.254Z,99.90
2018-09-14T13:20:54.321Z,99.90
2018-09-14T13:23:22.518Z,99.90
2018-09-14T13:25:50.669Z,99.90
2018-09-14T13:28:18.706Z,99.90
2018-09-14T13:30:46.826Z,99.90
2018-09-14T13:33:14.954Z,99.90
2018-09-14T13:35:43.049Z,99.90
2018-09-14T13:38:11.137Z,99.90
2018-09-14T13:40:39.185Z,99.90
2018-09-14T13:43:07.227Z,99.90
2018-09-14T13:45:35.355Z,99.90
2018-09-14T13:48:03.397Z,99.90
2018-09-14T13:50:32.399Z,99.90
2018-09-14T13:53:00.465Z,99.90
2018-09-14T13:55:29.014Z,93.70
2018-09-14T13:57:57.122Z,85.60
2018-09-14T14:00:25.664Z,78.40
2018-09-14T14:02:53.701Z,76.50
2018-09-14T14:05:22.261Z,79.40
2018-09-14T14:07:50.285Z,84.00
2018-09-14T14:10:18.495Z,85.40
2018-09-14T14:12:46.505Z,86.90
2018-09-14T14:15:14.579Z,90.80
2018-09-14T14:17:42.804Z,90.60
2018-09-14T14:20:10.950Z,90.70
2018-09-14T14:22:39.015Z,90.60
2018-09-14T14:25:07.009Z,90.90
2018-09-14T14:27:35.219Z,91.40
2018-09-14T14:30:03.261Z,91.50
2018-09-14T14:32:31.362Z,92.00
2018-09-14T14:34:59.439Z,93.90
2018-09-14T14:37:27.468Z,93.40
2018-09-14T14:39:55.508Z,94.80
2018-09-14T14:42:23.649Z,95.80
2018-09-14T14:44:51.893Z,95.80
2018-09-14T14:47:19.929Z,95.60
2018-09-14T14:49:48.026Z,95.80
2018-09-14T14:52:16.236Z,96.20
2018-09-14T14:54:44.344Z,95.30
2018-09-14T14:57:12.663Z,92.20
2018-09-14T14:59:40.711Z,87.50
2018-09-14T15:02:09.014Z,83.30
2018-09-14T15:04:37.057Z,75.20
2018-09-14T15:07:05.425Z,69.10
2018-09-14T15:09:33.528Z,64.00
2018-09-14T15:12:01.697Z,62.40
2018-09-14T15:14:29.784Z,63.30
2018-09-14T15:16:57.925Z,59.90
2018-09-14T15:19:26.049Z,58.80
2018-09-14T15:21:54.081Z,58.60
2018-09-14T15:24:22.452Z,59.00
2018-09-14T15:26:50.522Z,59.70
2018-09-14T15:29:18.585Z,61.80
2018-09-14T15:31:46.911Z,63.00
2018-09-14T15:34:14.961Z,66.30
2018-09-14T15:36:43.162Z,69.40
2018-09-14T15:39:12.763Z,70.80
2018-09-14T15:41:41.509Z,73.00
2018-09-14T15:44:09.653Z,72.10
2018-09-14T15:46:37.737Z,69.70
2018-09-14T15:49:05.779Z,67.80
2018-09-14T15:51:33.845Z,68.30
2018-09-14T15:54:02.225Z,71.20
2018-09-14T15:56:30.265Z,74.70
2018-09-14T15:58:58.329Z,77.90
2018-09-14T16:01:26.606Z,79.60
2018-09-14T16:03:54.699Z,79.60
2018-09-14T16:06:22.879Z,80.10
2018-09-14T16:08:50.921Z,82.60
2018-09-14T16:11:19.016Z,84.10
2018-09-14T16:13:47.054Z,86.60
2018-09-14T16:16:15.160Z,89.40
2018-09-14T16:18:43.238Z,90.30
2018-09-14T16:21:11.263Z,91.10
2018-09-14T16:23:39.296Z,92.50
2018-09-14T16:26:07.641Z,93.60
2018-09-14T16:28:35.685Z,94.80
2018-09-14T16:31:03.718Z,95.90
2018-09-14T16:33:31.760Z,96.80
2018-09-14T16:35:59.803Z,97.10
2018-09-14T16:38:27.837Z,97.00
2018-09-14T16:40:56.301Z,97.30
2018-09-14T16:43:24.457Z,97.50
2018-09-14T16:45:52.791Z,97.50
2018-09-14T16:48:20.906Z,97.40
2018-09-14T16:50:49.310Z,97.90
2018-09-14T16:53:17.356Z,98.90
2018-09-14T16:55:45.428Z,99.90
2018-09-14T16:58:13.501Z,99.90
2018-09-14T17:00:42.325Z,99.90
2018-09-14T17:03:10.505Z,99.90
2018-09-14T17:05:38.544Z,99.90
2018-09-14T17:08:06.746Z,99.90
2018-09-14T17:10:34.786Z,99.90
2018-09-14T17:13:03.171Z,99.90
2018-09-14T17:15:31.289Z,99.90
2018-09-14T17:17:59.534Z,99.90
2018-09-14T17:20:27.573Z,99.90
2018-09-14T17:22:56.905Z,99.90
2018-09-14T17:25:24.964Z,99.90
2018-09-14T17:27:53.097Z,99.90
2018-09-14T17:30:21.212Z,99.90
2018-09-14T17:32:49.434Z,99.90
2018-09-14T17:35:17.441Z,99.90
2018-09-14T17:37:45.510Z,99.90
2018-09-14T17:40:13.553Z,99.90
2018-09-14T17:42:41.637Z,99.90
2018-09-14T17:45:10.133Z,99.90
2018-09-14T17:47:38.242Z,99.90
2018-09-14T17:50:06.452Z,99.90
2018-09-14T17:52:34.513Z,99.90
2018-09-14T17:55:02.649Z,99.90
2018-09-14T17:57:30.721Z,99.90
2018-09-14T17:59:58.794Z,99.90
2018-09-14T18:02:26.877Z,99.90
2018-09-14T18:04:54.922Z,99.90
2018-09-14T18:07:22.954Z,99.90
2018-09-14T18:09:51.105Z,99.90
2018-09-14T18:12:19.144Z,99.90
2018-09-14T18:14:47.339Z,99.90
2018-09-14T18:17:15.403Z,99.90
2018-09-14T18:19:43.889Z,99.90
2018-09-14T18:22:12.240Z,99.90
2018-09-14T18:24:40.272Z,99.90
2018-09-14T18:27:08.423Z,99.90
2018-09-14T18:29:36.476Z,99.90
2018-09-14T18:32:04.517Z,99.90
2018-09-14T18:34:32.569Z,99.90
2018-09-14T18:37:00.597Z,99.90
2018-09-14T18:39:28.849Z,99.90
2018-09-14T18:41:56.989Z,99.90
2018-09-14T18:44:25.033Z,99.90
2018-09-14T18:46:53.110Z,99.90
2018-09-14T18:49:21.119Z,99.90
2018-09-14T18:51:49.258Z,99.90
2018-09-14T18:54:17.557Z,99.90
2018-09-14T18:56:45.931Z,99.90
2018-09-14T18:59:13.973Z,99.90
2018-09-14T19:01:42.432Z,99.90
2018-09-14T19:04:10.481Z,99.90
2018-09-14T19:06:38.589Z,99.90
2018-09-14T19:09:07.783Z,99.90
2018-09-14T19:11:35.835Z,99.90
2018-09-14T19:14:03.953Z,99.90
2018-09-14T19:16:32.109Z,99.90
2018-09-14T19:19:00.450Z,99.90
2018-09-14T19:21:28.573Z,99.90
2018-09-14T19:23:56.650Z,99.90
2018-09-14T19:26:25.001Z,99.90
2018-09-14T19:28:53.050Z,99.90
2018-09-14T19:31:21.196Z,99.90
2018-09-14T19:33:49.197Z,99.90
2018-09-14T19:36:17.324Z,99.90
2018-09-14T19:38:45.381Z,99.90
2018-09-14T19:41:13.621Z,99.90
2018-09-14T19:43:41.822Z,99.90
2018-09-14T19:46:09.859Z,99.90
2018-09-14T19:48:37.886Z,99.90
2018-09-14T19:51:05.953Z,99.90
2018-09-14T19:53:34.053Z,99.90
2018-09-14T19:56:02.194Z,99.90
2018-09-14T19:58:30.243Z,99.90
2018-09-14T20:00:58.337Z,99.90
2018-09-14T20:03:26.375Z,99.90
2018-09-14T20:05:54.532Z,99.90
2018-09-14T20:08:22.574Z,99.90
2018-09-14T20:10:50.625Z,99.90
2018-09-14T20:13:18.663Z,99.90
2018-09-14T20:15:46.810Z,99.90
2018-09-14T20:18:14.932Z,99.90
2018-09-14T20:20:43.065Z,99.90
2018-09-14T20:23:11.146Z,99.90
2018-09-14T20:25:39.196Z,99.90
2018-09-14T20:28:07.288Z,99.90
2018-09-14T20:30:35.370Z,99.90
2018-09-14T20:33:03.605Z,99.90
2018-09-14T20:35:31.670Z,99.90
2018-09-14T20:37:59.693Z,99.90
2018-09-14T20:40:27.873Z,99.90
2018-09-14T20:42:56.072Z,99.90
2018-09-14T20:45:24.104Z,99.90
2018-09-14T20:47:52.135Z,99.90
2018-09-14T20:50:20.191Z,99.90
2018-09-14T20:52:48.260Z,99.90
2018-09-14T20:55:16.309Z,99.90
2018-09-14T20:57:44.498Z,99.90
2018-09-14T21:00:16.903Z,99.90
2018-09-14T21:02:45.146Z,99.90
2018-09-14T21:05:13.448Z,99.90
2018-09-14T21:07:41.569Z,99.90
2018-09-14T21:10:09.653Z,99.90
2018-09-14T21:12:37.698Z,99.90
2018-09-14T21:15:05.722Z,99.90
2018-09-14T21:17:33.856Z,99.90
2018-09-14T21:20:01.920Z,99.90
2018-09-14T21:22:30.024Z,99.90
2018-09-14T21:24:58.004Z,99.90
2018-09-14T21:27:26.255Z,99.90
2018-09-14T21:29:54.313Z,99.90
2018-09-14T21:32:22.505Z,99.90
2018-09-14T21:34:50.586Z,99.90
2018-09-14T21:37:18.640Z,99.90
2018-09-14T21:39:46.713Z,99.90
2018-09-14T21:42:14.822Z,99.90
2018-09-14T21:44:42.816Z,99.90
2018-09-14T21:47:11.886Z,99.90
2018-09-14T21:49:39.917Z,99.90
2018-09-14T21:52:07.978Z,99.90
2018-09-14T21:54:36.161Z,99.90
2018-09-14T21:57:04.245Z,99.90
2018-09-14T21:59:32.354Z,99.90
2018-09-14T22:02:00.430Z,99.90
2018-09-14T22:04:28.437Z,99.90
2018-09-14T22:06:56.489Z,99.90
2018-09-14T22:09:24.593Z,99.90
2018-09-14T22:11:52.633Z,99.90
2018-09-14T22:14:20.680Z,99.90
2018-09-14T22:16:48.753Z,99.90
2018-09-14T22:19:16.737Z,99.90
2018-09-14T22:21:45.001Z,99.90
2018-09-14T22:24:12.957Z,99.90
2018-09-14T22:26:40.989Z,99.90
2018-09-14T22:29:09.118Z,99.90
2018-09-14T22:31:37.159Z,99.90
2018-09-14T22:34:05.194Z,99.90
2018-09-14T22:36:33.304Z,99.90
2018-09-14T22:39:01.334Z,99.90
2018-09-14T22:41:29.376Z,99.90
2018-09-14T22:43:57.421Z,99.90
2018-09-14T22:46:25.493Z,99.90
2018-09-14T22:48:53.770Z,99.90
2018-09-14T22:51:21.854Z,99.90
2018-09-14T22:53:49.892Z,99.90
2018-09-14T22:56:17.955Z,99.90
2018-09-14T22:58:46.532Z,99.90
2018-09-14T23:01:19.573Z,99.90
2018-09-14T23:03:48.969Z,99.90
2018-09-14T23:06:17.019Z,99.90
2018-09-14T23:08:45.228Z,99.90
2018-09-14T23:11:13.269Z,99.90
2018-09-14T23:13:41.861Z,99.90
2018-09-14T23:16:09.967Z,99.90
2018-09-14T23:18:37.996Z,99.90
2018-09-14T23:21:06.080Z,99.90
2018-09-14T23:23:34.144Z,99.90
2018-09-14T23:26:04.792Z,99.90
2018-09-14T23:28:32.853Z,99.90
2018-09-14T23:31:00.879Z,99.90
2018-09-14T23:33:28.998Z,99.90
2018-09-14T23:35:57.032Z,99.90
2018-09-14T23:38:25.077Z,99.90
2018-09-14T23:40:53.100Z,99.90
2018-09-14T23:43:21.149Z,99.90
2018-09-14T23:45:49.281Z,99.90
2018-09-14T23:48:17.340Z,99.90
2018-09-14T23:50:45.400Z,99.90
2018-09-14T23:53:13.569Z,99.90
2018-09-14T23:55:41.658Z,99.90
2018-09-14T23:58:09.729Z,99.90
